createdAt,value
2019-05-20T00:03:06.123Z,4.08
2019-05-20T00:05:36.181Z,4.05
2019-05-20T00:10:45.411Z,3.80
2019-05-20T00:13:15.648Z,3.85
2019-05-20T00:18:25.242Z,3.37
2019-05-20T00:20:55.166Z,3.83
2019-05-20T00:23:25.120Z,4.05
2019-05-20T00:28:34.384Z,4.17
2019-05-20T00:31:04.313Z,3.55
2019-05-20T00:33:34.267Z,4.10
2019-05-20T00:36:04.204Z,4.17
2019-05-20T00:41:13.766Z,3.98
2019-05-20T00:43:43.719Z,3.90
2019-05-20T00:46:13.650Z,3.47
2019-05-20T00:51:22.912Z,3.75
2019-05-20T00:56:32.238Z,3.85
2019-05-20T00:59:02.162Z,3.55
2019-05-20T01:01:32.107Z,3.80
2019-05-20T01:06:41.357Z,3.45
2019-05-20T01:09:11.306Z,4.40
2019-05-20T01:11:41.234Z,3.80
2019-05-20T01:14:11.178Z,3.90
2019-05-20T01:16:41.115Z,4.10
2019-05-20T01:19:11.047Z,4.25
2019-05-20T01:21:41.352Z,3.87
2019-05-20T01:24:11.598Z,4.05
2019-05-20T01:26:41.514Z,3.75
2019-05-20T01:31:50.779Z,4.03
2019-05-20T01:34:20.748Z,3.70
2019-05-20T01:36:50.672Z,3.75
2019-05-20T01:39:20.637Z,3.80
2019-05-20T01:41:50.560Z,3.70
2019-05-20T01:46:59.842Z,4.15
2019-05-20T01:49:29.807Z,3.90
2019-05-20T01:54:39.401Z,4.42
2019-05-20T01:57:09.354Z,3.95
2019-05-20T01:59:39.324Z,4.00
2019-05-20T02:02:09.242Z,4.00
2019-05-20T02:04:39.152Z,3.60
2019-05-20T02:09:48.729Z,4.10
2019-05-20T02:12:18.643Z,3.58
2019-05-20T02:17:27.914Z,4.20
2019-05-20T02:19:57.929Z,4.00
2019-05-20T02:22:28.229Z,3.92
2019-05-20T02:24:58.534Z,3.98
2019-05-20T02:30:10.562Z,4.62
2019-05-20T02:32:40.448Z,4.75
2019-05-20T02:35:10.465Z,4.70
2019-05-20T02:40:19.642Z,5.37
2019-05-20T02:45:28.898Z,5.20
2019-05-20T02:47:58.839Z,5.60
2019-05-20T02:50:29.103Z,5.58
2019-05-20T02:52:59.048Z,4.85
2019-05-20T02:55:28.957Z,5.90
2019-05-20T02:57:58.904Z,6.37
2019-05-20T03:00:29.167Z,6.03
2019-05-20T03:05:38.621Z,6.78
2019-05-20T03:08:08.541Z,6.35
2019-05-20T03:10:38.846Z,6.28
2019-05-20T03:13:09.071Z,6.42
2019-05-20T03:15:38.997Z,7.10
2019-05-20T03:18:08.938Z,6.60
2019-05-20T03:20:38.884Z,7.42
2019-05-20T03:23:08.797Z,6.08
2019-05-20T03:25:38.726Z,6.90
2019-05-20T03:28:08.665Z,7.00
2019-05-20T03:30:38.591Z,6.78
2019-05-20T03:33:08.545Z,6.95
2019-05-20T03:35:38.798Z,6.42
2019-05-20T03:38:08.750Z,7.05
2019-05-20T03:40:38.659Z,7.20
2019-05-20T03:43:08.606Z,6.47
2019-05-20T03:45:38.551Z,6.80
2019-05-20T03:48:08.490Z,6.62
2019-05-20T03:50:38.411Z,6.35
2019-05-20T03:53:08.340Z,7.00
2019-05-20T03:55:38.289Z,6.55
2019-05-20T04:00:47.620Z,6.00
2019-05-20T04:03:17.491Z,6.55
2019-05-20T04:05:47.413Z,6.67
2019-05-20T04:10:57.045Z,6.30
2019-05-20T04:13:26.979Z,6.53
2019-05-20T04:15:56.908Z,6.33
2019-05-20T04:21:06.225Z,6.53
2019-05-20T04:23:36.240Z,6.37
2019-05-20T04:26:06.451Z,6.37
2019-05-20T04:28:36.388Z,6.90
2019-05-20T04:31:06.318Z,5.80
2019-05-20T04:36:16.043Z,7.20
2019-05-20T04:38:45.997Z,6.30
2019-05-20T04:41:16.276Z,6.58
2019-05-20T04:46:25.565Z,6.78
2019-05-20T04:48:55.496Z,6.35
2019-05-20T04:51:25.766Z,6.28
2019-05-20T04:53:55.991Z,7.03
2019-05-20T04:56:29.131Z,7.40
2019-05-20T04:58:56.141Z,7.70
2019-05-20T05:01:26.073Z,7.80
2019-05-20T05:03:56.017Z,7.53
2019-05-20T05:06:25.961Z,8.43
2019-05-20T05:08:55.900Z,7.67
2019-05-20T05:11:25.880Z,8.18
2019-05-20T05:13:55.772Z,8.15
2019-05-20T05:16:25.689Z,7.55
2019-05-20T05:21:34.733Z,8.43
2019-05-20T05:24:04.648Z,8.45
2019-05-20T05:26:34.577Z,8.05
2019-05-20T05:29:04.771Z,8.15
2019-05-20T05:34:14.354Z,8.55
2019-05-20T05:36:44.299Z,9.05
2019-05-20T05:39:14.255Z,9.08
2019-05-20T05:41:44.163Z,8.13
2019-05-20T05:49:33.074Z,8.80
2019-05-20T05:54:42.339Z,9.15
2019-05-20T05:57:12.260Z,8.83
2019-05-20T05:59:42.204Z,9.15
2019-05-20T06:02:12.126Z,8.70
2019-05-20T06:04:42.415Z,9.25
2019-05-20T06:07:12.348Z,9.33
2019-05-20T06:09:42.282Z,9.35
2019-05-20T06:12:12.481Z,9.80
2019-05-20T06:14:42.405Z,9.98
2019-05-20T06:17:12.361Z,10.70
2019-05-20T06:19:42.606Z,9.95
2019-05-20T06:22:14.497Z,10.00
2019-05-20T06:24:42.471Z,10.78
2019-05-20T06:27:12.398Z,10.23
2019-05-20T06:29:42.334Z,10.88
2019-05-20T06:32:12.261Z,10.65
2019-05-20T06:34:43.175Z,10.75
2019-05-20T06:37:12.145Z,11.53
2019-05-20T06:39:42.393Z,11.75
2019-05-20T06:42:12.325Z,11.97
2019-05-20T06:44:52.195Z,13.10
2019-05-20T06:47:12.550Z,12.53
2019-05-20T06:49:42.494Z,11.38
2019-05-20T06:52:12.423Z,13.65
2019-05-20T06:54:42.370Z,13.40
2019-05-20T06:57:12.642Z,12.85
2019-05-20T06:59:42.253Z,12.30
2019-05-20T07:02:12.199Z,12.55
2019-05-20T07:04:42.155Z,12.58
2019-05-20T07:09:51.725Z,11.88
2019-05-20T07:12:21.657Z,11.80
2019-05-20T07:14:51.604Z,11.97
2019-05-20T07:17:21.540Z,13.05
2019-05-20T07:19:51.507Z,13.28
2019-05-20T07:22:21.450Z,13.93
2019-05-20T07:24:51.391Z,13.78
2019-05-20T07:27:21.617Z,14.83
2019-05-20T07:29:51.564Z,13.72
2019-05-20T07:32:21.871Z,13.80
2019-05-20T07:34:51.830Z,13.72
2019-05-20T07:37:21.805Z,14.73
2019-05-20T07:39:51.735Z,13.18
2019-05-20T07:42:21.922Z,13.25
2019-05-20T07:44:51.868Z,14.25
2019-05-20T07:47:22.145Z,13.32
2019-05-20T07:49:52.087Z,14.07
2019-05-20T07:52:22.008Z,14.95
2019-05-20T07:57:31.289Z,14.47
2019-05-20T08:00:01.210Z,14.38
2019-05-20T08:05:10.565Z,15.32
2019-05-20T08:07:52.050Z,15.45
2019-05-20T08:10:10.333Z,13.95
2019-05-20T08:12:40.554Z,15.60
2019-05-20T08:15:10.503Z,15.08
2019-05-20T08:20:20.033Z,14.80
2019-05-20T08:22:50.326Z,15.90
2019-05-20T08:25:20.269Z,15.72
2019-05-20T08:27:50.201Z,15.13
2019-05-20T08:35:39.090Z,15.50
2019-05-20T08:38:08.815Z,17.07
2019-05-20T08:40:39.065Z,15.08
2019-05-20T08:45:48.365Z,14.98
2019-05-20T08:48:18.299Z,15.20
2019-05-20T08:50:48.540Z,15.68
2019-05-20T08:53:18.773Z,16.15
2019-05-20T08:55:48.744Z,15.48
2019-05-20T09:00:57.993Z,17.45
2019-05-20T09:03:30.271Z,16.00
2019-05-20T09:05:58.448Z,16.23
2019-05-20T09:11:08.024Z,17.12
2019-05-20T09:13:37.979Z,18.32
2019-05-20T09:16:07.935Z,17.75
2019-05-20T09:18:38.177Z,17.35
2019-05-20T09:21:08.199Z,19.75
2019-05-20T09:23:38.404Z,17.90
2019-05-20T09:26:08.343Z,18.65
2019-05-20T09:28:38.272Z,18.57
2019-05-20T09:31:08.232Z,19.12
2019-05-20T09:36:17.830Z,17.40
2019-05-20T09:38:47.764Z,17.55
2019-05-20T09:41:17.714Z,17.42
2019-05-20T09:43:47.998Z,18.50
2019-05-20T09:46:17.909Z,17.80
2019-05-20T09:48:48.189Z,17.52
2019-05-20T09:51:18.167Z,17.23
2019-05-20T09:53:48.443Z,16.97
2019-05-20T09:56:18.650Z,17.23
2019-05-20T09:58:48.581Z,16.60
2019-05-20T10:01:18.953Z,17.17
2019-05-20T10:06:28.562Z,18.55
2019-05-20T10:08:58.479Z,16.75
2019-05-20T10:11:29.685Z,18.00
2019-05-20T10:13:58.345Z,16.32
2019-05-20T10:16:28.319Z,16.42
2019-05-20T10:18:58.279Z,16.20
2019-05-20T10:21:29.843Z,14.43
2019-05-20T10:23:58.777Z,15.83
2019-05-20T10:26:28.952Z,14.43
2019-05-20T10:31:38.267Z,15.45
2019-05-20T10:34:08.197Z,15.45
2019-05-20T10:36:38.164Z,16.70
2019-05-20T10:41:47.436Z,15.53
2019-05-20T10:44:17.368Z,15.05
2019-05-20T10:46:47.311Z,15.78
2019-05-20T10:49:17.247Z,15.68
2019-05-20T10:51:47.195Z,14.87
2019-05-20T10:56:59.655Z,12.55
2019-05-20T10:59:27.042Z,13.45
2019-05-20T11:01:56.978Z,12.40
2019-05-20T11:04:27.279Z,12.07
2019-05-20T11:06:57.227Z,11.48
2019-05-20T11:09:27.496Z,10.50
2019-05-20T11:11:57.438Z,12.03
2019-05-20T11:14:27.379Z,11.55
2019-05-20T11:16:57.316Z,10.30
2019-05-20T11:19:27.288Z,10.93
2019-05-20T11:24:36.921Z,11.28
2019-05-20T11:29:46.587Z,11.38
2019-05-20T11:34:55.764Z,10.70
2019-05-20T11:37:26.062Z,10.50
2019-05-20T11:39:55.986Z,9.85
2019-05-20T11:42:26.283Z,9.53
2019-05-20T11:44:56.228Z,9.68
2019-05-20T11:50:11.248Z,11.53
2019-05-20T11:52:41.508Z,11.65
2019-05-20T11:55:11.716Z,10.82
2019-05-20T12:00:21.335Z,10.00
2019-05-20T12:02:51.225Z,8.00
2019-05-20T12:05:21.238Z,9.38
2019-05-20T12:07:51.518Z,8.58
2019-05-20T12:15:40.480Z,9.83
2019-05-20T12:18:10.432Z,8.88
2019-05-20T12:25:59.330Z,10.65
2019-05-20T12:28:29.302Z,10.05
2019-05-20T12:30:59.231Z,10.10
2019-05-20T12:33:29.167Z,9.45
2019-05-20T12:35:59.108Z,11.57
2019-05-20T12:38:29.053Z,9.60
2019-05-20T12:40:58.983Z,10.28
2019-05-20T12:51:27.564Z,14.60
2019-05-20T13:01:56.036Z,14.50
2019-05-20T13:04:26.032Z,13.48
2019-05-20T13:06:56.478Z,13.00
2019-05-20T13:12:05.589Z,15.90
2019-05-20T13:14:35.527Z,15.05
2019-05-20T13:19:45.702Z,14.95
2019-05-20T13:22:15.566Z,14.68
2019-05-20T13:24:45.771Z,15.68
2019-05-20T13:27:15.696Z,14.68
2019-05-20T13:29:45.645Z,14.87
2019-05-20T13:32:15.911Z,14.53
2019-05-20T13:34:46.278Z,15.13
2019-05-20T13:37:16.200Z,13.30
2019-05-20T13:39:46.149Z,14.13
2019-05-20T13:42:16.087Z,14.43
2019-05-20T13:47:25.373Z,11.65
2019-05-20T13:49:55.320Z,5.40
2019-05-20T13:52:25.263Z,3.75
2019-05-20T13:54:55.613Z,3.15
2019-05-20T13:57:25.544Z,3.22
2019-05-20T13:59:55.805Z,4.28
2019-05-20T14:02:26.031Z,6.22
2019-05-20T14:04:56.056Z,4.95
2019-05-20T14:07:25.999Z,4.85
2019-05-20T14:09:55.941Z,4.58
2019-05-20T14:12:26.186Z,3.52
2019-05-20T14:17:35.967Z,3.80
2019-05-20T14:20:05.915Z,4.25
2019-05-20T14:22:35.837Z,4.37
2019-05-20T14:25:06.097Z,4.08
2019-05-20T14:30:15.974Z,5.22
2019-05-20T14:35:25.235Z,5.62
2019-05-20T14:37:55.254Z,4.92
2019-05-20T14:40:25.547Z,6.28
2019-05-20T14:45:34.831Z,6.90
2019-05-20T14:48:04.761Z,7.35
2019-05-20T14:50:34.702Z,5.95
2019-05-20T14:55:44.284Z,4.70
2019-05-20T14:58:14.217Z,6.10
2019-05-20T15:00:44.160Z,4.67
2019-05-20T15:03:14.351Z,4.97
2019-05-20T15:05:44.692Z,5.05
2019-05-20T15:08:14.595Z,4.67
2019-05-20T15:10:44.536Z,5.30
2019-05-20T15:13:14.842Z,5.00
2019-05-20T15:18:25.082Z,5.58
2019-05-20T15:20:55.492Z,5.60
2019-05-20T15:23:25.331Z,9.40
2019-05-20T15:25:55.524Z,6.37
2019-05-20T15:28:25.812Z,6.25
2019-05-20T15:30:55.850Z,5.28
2019-05-20T15:36:05.098Z,5.20
2019-05-20T15:38:35.040Z,5.70
2019-05-20T15:46:24.637Z,5.15
2019-05-20T15:48:54.626Z,4.87
2019-05-20T15:51:24.860Z,4.85
2019-05-20T15:53:55.084Z,4.60
2019-05-20T15:56:25.306Z,5.35
2019-05-20T15:58:55.244Z,5.50
2019-05-20T16:01:25.539Z,5.60
2019-05-20T16:03:55.751Z,5.62
2019-05-20T16:06:26.587Z,5.20
2019-05-20T16:08:56.517Z,5.90
2019-05-20T16:11:26.794Z,6.20
2019-05-20T16:13:56.416Z,5.70
2019-05-20T16:16:26.353Z,5.47
2019-05-20T16:18:56.590Z,5.62
2019-05-20T16:21:26.549Z,5.75
2019-05-20T16:23:56.505Z,5.37
2019-05-20T16:26:29.873Z,6.70
2019-05-20T16:28:56.501Z,13.08
2019-05-20T16:31:26.427Z,10.43
2019-05-20T16:33:59.399Z,7.72
2019-05-20T16:36:26.319Z,6.62
2019-05-20T16:41:36.706Z,5.70
2019-05-20T16:44:06.651Z,6.00
2019-05-20T16:46:36.570Z,6.40
2019-05-20T16:49:06.515Z,6.30
2019-05-20T16:51:36.555Z,6.42
2019-05-20T16:56:46.152Z,6.67
2019-05-20T16:59:16.084Z,7.28
2019-05-20T17:01:46.748Z,7.50
2019-05-20T17:04:15.961Z,7.55
2019-05-20T17:06:45.906Z,6.47
2019-05-20T17:09:16.095Z,6.35
2019-05-20T17:14:25.377Z,6.70
2019-05-20T17:16:55.291Z,5.70
2019-05-20T17:19:25.227Z,6.25
2019-05-20T17:24:34.749Z,6.28
2019-05-20T17:29:44.178Z,6.53
2019-05-20T17:32:14.358Z,6.67
2019-05-20T17:34:44.307Z,6.87
2019-05-20T17:37:14.578Z,5.95
2019-05-20T17:39:44.530Z,6.42
2019-05-20T17:42:14.463Z,5.80
2019-05-20T17:44:44.410Z,5.97
2019-05-20T17:47:14.338Z,6.50
2019-05-20T17:49:44.285Z,5.67
2019-05-20T17:52:14.204Z,5.42
2019-05-20T17:54:44.148Z,6.15
2019-05-20T17:57:14.058Z,5.87
2019-05-20T17:59:44.025Z,6.40
2019-05-20T18:02:13.945Z,5.85
2019-05-20T18:04:43.886Z,5.75
2019-05-20T18:07:13.811Z,6.45
2019-05-20T18:09:43.750Z,4.72
2019-05-20T18:12:13.973Z,6.20
2019-05-20T18:14:43.922Z,5.80
2019-05-20T18:17:14.203Z,6.42
2019-05-20T18:22:23.759Z,6.00
2019-05-20T18:24:53.981Z,6.25
2019-05-20T18:27:23.932Z,6.30
2019-05-20T18:29:54.263Z,5.60
2019-05-20T18:32:24.543Z,5.47
2019-05-20T18:34:54.483Z,5.90
2019-05-20T18:37:24.425Z,6.05
2019-05-20T18:39:54.358Z,6.00
2019-05-20T18:42:24.283Z,7.90
2019-05-20T18:44:54.220Z,6.75
2019-05-20T18:47:24.149Z,6.15
2019-05-20T18:49:54.101Z,6.60
2019-05-20T18:52:24.023Z,6.65
2019-05-20T18:54:54.301Z,7.28
2019-05-20T18:57:24.244Z,7.37
2019-05-20T18:59:54.181Z,5.33
2019-05-20T19:02:24.111Z,6.05
2019-05-20T19:04:54.516Z,6.85
2019-05-20T19:07:24.380Z,6.58
2019-05-20T19:09:54.318Z,6.67
2019-05-20T19:12:24.591Z,6.35
2019-05-20T19:14:54.808Z,6.58
2019-05-20T19:17:24.782Z,6.47
2019-05-20T19:19:54.751Z,6.70
2019-05-20T19:25:06.234Z,7.08
2019-05-20T19:27:34.426Z,7.47
2019-05-20T19:30:04.373Z,7.60
2019-05-20T19:32:34.654Z,8.75
2019-05-20T19:35:04.616Z,9.00
2019-05-20T19:37:34.533Z,9.10
2019-05-20T19:40:04.714Z,9.00
2019-05-20T19:42:34.452Z,8.75
2019-05-20T19:47:43.716Z,8.45
2019-05-20T19:50:13.848Z,9.38
2019-05-20T19:52:43.604Z,8.38
2019-05-20T19:57:52.876Z,9.00
2019-05-20T20:00:22.819Z,9.35
2019-05-20T20:02:52.762Z,9.25
2019-05-20T20:05:22.716Z,8.70
2019-05-20T20:07:52.990Z,7.50
2019-05-20T20:10:23.337Z,7.75
2019-05-20T20:12:53.261Z,8.83
2019-05-20T20:15:23.213Z,8.23
2019-05-20T20:17:53.467Z,7.53
2019-05-20T20:20:23.401Z,8.53
2019-05-20T20:22:53.330Z,9.30
2019-05-20T20:25:23.262Z,9.00
2019-05-20T20:27:53.533Z,8.45
2019-05-20T20:30:23.495Z,7.20
2019-05-20T20:32:53.429Z,6.92
2019-05-20T20:35:37.255Z,7.70
2019-05-20T20:37:53.320Z,7.53
2019-05-20T20:40:23.287Z,7.83
2019-05-20T20:42:53.223Z,7.28
2019-05-20T20:45:23.165Z,7.70
2019-05-20T20:47:53.109Z,7.15
2019-05-20T20:50:23.358Z,7.33
2019-05-20T20:52:53.308Z,7.10
2019-05-20T20:55:23.259Z,7.85
2019-05-20T20:57:53.502Z,7.60
2019-05-20T21:03:02.527Z,7.42
2019-05-20T21:05:32.472Z,7.15
2019-05-20T21:08:02.785Z,6.85
2019-05-20T21:10:33.005Z,7.58
2019-05-20T21:13:02.959Z,7.80
2019-05-20T21:15:33.243Z,7.53
2019-05-20T21:18:03.163Z,7.35
2019-05-20T21:20:33.347Z,7.17
2019-05-20T21:23:03.337Z,7.62
2019-05-20T21:25:33.224Z,7.30
2019-05-20T21:28:03.174Z,7.47
2019-05-20T21:30:33.103Z,7.70
2019-05-20T21:33:09.362Z,7.10
2019-05-20T21:35:32.981Z,6.22
2019-05-20T21:38:02.927Z,6.03
2019-05-20T21:40:32.851Z,6.40
2019-05-20T21:43:02.881Z,6.03
2019-05-20T21:45:32.798Z,5.85
2019-05-20T21:48:02.759Z,6.55
2019-05-20T21:50:32.661Z,5.55
2019-05-20T21:53:02.621Z,5.62
2019-05-20T21:55:32.547Z,5.62
2019-05-20T21:58:02.497Z,6.55
2019-05-20T22:00:32.719Z,6.25
2019-05-20T22:03:02.689Z,6.80
2019-05-20T22:05:32.946Z,6.30
2019-05-20T22:08:04.232Z,6.00
2019-05-20T22:10:33.175Z,6.47
2019-05-20T22:13:03.296Z,6.45
2019-05-20T22:15:33.511Z,6.67
2019-05-20T22:18:03.449Z,7.30
2019-05-20T22:20:33.379Z,6.20
2019-05-20T22:23:03.824Z,5.72
2019-05-20T22:25:33.754Z,6.08
2019-05-20T22:28:03.747Z,6.72
2019-05-20T22:30:34.020Z,6.35
2019-05-20T22:33:03.979Z,6.40
2019-05-20T22:35:33.899Z,6.72
2019-05-20T22:38:03.834Z,6.35
2019-05-20T22:40:33.756Z,6.50
2019-05-20T22:43:04.006Z,5.72
2019-05-20T22:45:34.312Z,6.62
2019-05-20T22:48:04.268Z,5.72
2019-05-20T22:50:34.219Z,6.00
2019-05-20T22:53:04.493Z,5.42
2019-05-20T22:55:34.685Z,6.35
2019-05-20T22:58:04.928Z,5.00
2019-05-20T23:00:34.896Z,5.30
2019-05-20T23:03:05.172Z,5.53
2019-05-20T23:05:35.090Z,4.37
2019-05-20T23:08:05.027Z,4.70
2019-05-20T23:10:35.285Z,4.55
2019-05-20T23:13:05.257Z,4.10
2019-05-20T23:15:35.175Z,4.33
2019-05-20T23:18:05.130Z,3.90
2019-05-20T23:20:35.051Z,3.75
2019-05-20T23:23:05.004Z,3.90
2019-05-20T23:25:35.331Z,4.62
2019-05-20T23:28:05.227Z,3.60
2019-05-20T23:30:35.418Z,3.47
2019-05-20T23:33:05.390Z,2.95
2019-05-20T23:35:35.648Z,3.02
2019-05-20T23:38:05.598Z,2.62
2019-05-20T23:40:35.517Z,2.98
2019-05-20T23:43:05.455Z,2.45
2019-05-20T23:45:35.382Z,2.42
2019-05-20T23:48:05.623Z,2.70
2019-05-20T23:50:35.549Z,2.98
2019-05-20T23:53:05.511Z,2.80
2019-05-20T23:55:35.468Z,2.90
2019-05-20T23:58:05.438Z,3.10
